• Join FlightAware (Why Join?)
  • Login
  • US Flag 
03:20PM EDT


 

Airport Tracker/Info


-or-


 

Live Flight TrackerFlight Track Log ✈ ASQ5848 ✈ 05-May-2013 ✈ KSYR - KORD

Flight Track Log - Related Links

Times and Time Zones

All times are in EDT time to prevent confusion due to time zone crossing. See the ASQ5848 flight status page for this flight to view local times or setup timezone preferences in your user account.

Time Position Orientation Groundspeed Altitude Reporting Facility
EDT Latitude Longitude Course Direction KTS MPH feet Rate Location/Type
12:33PM 43.1092 -76.0808 87° East 169 194 1,100  Level Boston Center
12:33PM 43.1106 -76.0383 87° East 179 206 2,200 2,160 Climbing Boston Center
12:34PM 43.1500 -75.9808 47° Northeast 217 250 4,600 1,860 Climbing Boston Center
12:35PM 43.2033 -76.0039 343° North 273 314 6,000 1,740 Climbing Boston Center
12:37PM 43.2031 -76.1567 270° West 284 327 9,100 1,920 Climbing Cleveland Center
12:38PM 43.2031 -76.2650 270° West 290 334 10,900 1,440 Climbing Cleveland Center
12:39PM 43.2033 -76.3903 270° West 311 358 12,000 1,080 Climbing Cleveland Center
12:40PM 43.2144 -76.5236 277° West 332 382 13,100 1,200 Climbing Cleveland Center
12:41PM 43.2378 -76.6589 283° West 355 409 14,400 1,140 Climbing Cleveland Center
12:42PM 43.2383 -76.8042 270° West 371 427 15,400 960 Climbing Cleveland Center
12:43PM 43.2350 -76.9525 268° West 383 441 16,400 1,140 Climbing Cleveland Center
12:44PM 43.2272 -77.1128 266° West 388 447 17,700 1,140 Climbing Cleveland Center
12:45PM 43.2233 -77.2639 268° West 393 452 18,700 1,020 Climbing Cleveland Center
12:46PM 43.2192 -77.4153 268° West 398 458 19,800 1,080 Climbing Cleveland Center
12:47PM 43.2150 -77.5692 268° West 403 464 20,900 1,020 Climbing Cleveland Center
12:48PM 43.2086 -77.7264 267° West 408 470 21,900 960 Climbing Cleveland Center
12:49PM 43.2019 -77.8833 267° West 408 470 22,900 960 Climbing Cleveland Center
12:50PM 43.1992 -78.0400 269° West 408 470 23,900 1,140 Climbing Cleveland Center
12:51PM 43.1919 -78.1911 266° West 408 470 25,200 1,320 Climbing Cleveland Center
12:52PM 43.1783 -78.3428 263° West 408 470 26,600 1,380 Climbing Cleveland Center
12:53PM 43.1497 -78.4861 255° West 397 457 28,000 1,320 Climbing Cleveland Center
12:54PM 43.1061 -78.6125 245° Southwest 382 440 29,300 1,200 Climbing Cleveland Center
12:55PM 43.0625 -78.7419 245° Southwest 377 434 30,400 1,020 Climbing Cleveland Center
12:56PM 43.0225 -78.8594 245° Southwest 377 434 31,400 1,080 Climbing Cleveland Center
12:56PM 42.9833 -78.9333 234° Southwest 380 437 32,100 1,020 Climbing Toronto Center
12:57PM 42.9833 -79.0667 270° West 380 437 33,000 960 Climbing Toronto Center
12:58PM 42.9833 -79.2167 270° West 380 437 34,100 960 Climbing Toronto Center
12:59PM 42.9833 -79.3667 270° West 380 437 35,000 900 Climbing Toronto Center
01:00PM 42.9833 -79.5000 270° West 380 437 36,000 480 Climbing Toronto Center
01:01PM 42.9833 -79.6500 270° West 380 437 36,000  Level Toronto Center
01:02PM 43.0000 -79.8000 279° West 400 460 36,000  Level Toronto Center
01:03PM 43.0000 -79.9500 270° West 420 483 36,000  Level Toronto Center
01:04PM 43.0000 -80.1167 270° West 430 495 36,000  Level Toronto Center
01:05PM 43.0000 -80.3000 270° West 430 495 36,000  Level Toronto Center
01:06PM 43.0000 -80.4333 270° West 420 483 36,000  Level Toronto Center
01:07PM 43.0000 -80.5833 270° West 410 472 36,000  Level Toronto Center
01:08PM 43.0000 -80.7500 270° West 410 472 36,000  Level Toronto Center
01:09PM 42.9833 -80.9167 262° West 410 472 36,000  Level Toronto Center
01:10PM 42.9833 -81.0667 270° West 410 472 36,000  Level Toronto Center
01:11PM 42.9833 -81.2333 270° West 410 472 36,000  Level Toronto Center
01:12PM 42.9833 -81.3667 270° West 410 472 36,000  Level Toronto Center
01:13PM 42.9833 -81.5500 270° West 420 483 36,000  Level Toronto Center
01:14PM 43.0000 -81.7000 279° West 420 483 36,000  Level Toronto Center
01:15PM 43.0000 -81.8500 270° West 420 483 36,000  Level Toronto Center
01:16PM 42.9833 -82.0333 263° West 430 495 36,000  Level Toronto Center
01:17PM 42.9833 -82.1833 270° West 430 495 36,000  Level Toronto Center
01:18PM 42.9833 -82.3500 270° West 420 483 36,000  Level Toronto Center
01:19PM 42.9833 -82.5000 270° West 420 483 36,000  Level Toronto Center
01:20PM 42.9878 -82.6436 272° West 423 487 36,000  Level Cleveland Center
01:21PM 42.9850 -82.7997 269° West 423 487 36,000  Level Cleveland Center
01:22PM 42.9839 -82.9558 269° West 423 487 36,000  Level Cleveland Center
01:23PM 42.9806 -83.1175 268° West 423 487 36,000  Level Cleveland Center
01:24PM 42.9769 -83.2761 268° West 423 487 36,000  Level Cleveland Center
01:25PM 42.9753 -83.4350 269° West 423 487 36,000  Level Cleveland Center
01:26PM 42.9689 -83.6022 267° West 423 487 36,000  Level Cleveland Center
01:27PM 42.9625 -83.7636 267° West 428 493 36,000  Level Cleveland Center
01:28PM 42.9497 -83.9219 264° West 428 493 36,000  Level Cleveland Center
01:29PM 42.9322 -84.0856 262° West 428 493 36,000 -300 Level Cleveland Center
01:30PM 42.9169 -84.2464 263° West 428 493 35,400 -1,320 Descending Cleveland Center
01:31PM 42.9022 -84.4075 263° West 433 498 33,300 -1,860 Descending Chicago Center
01:32PM 42.8844 -84.5742 262° West 442 509 31,500 -1,800 Descending Chicago Center
01:33PM 42.8689 -84.7386 263° West 439 505 29,600 -1,800 Descending Chicago Center
01:34PM 42.8506 -84.9067 262° West 447 514 27,800 -1,740 Descending Chicago Center
01:35PM 42.8283 -85.1144 262° West 461 531 26,100 -900 Descending Chicago Center
01:36PM 42.8103 -85.2861 262° West 458 527 26,000 -60 Descending Chicago Center
01:37PM 42.7911 -85.4581 261° West 459 528 26,000  Level Chicago Center
01:38PM 42.7636 -85.6275 258° West 457 526 26,000  Level Chicago Center
01:39PM 42.7322 -85.7972 256° West 458 527 26,000  Level Chicago Center
01:41PM 42.7017 -85.9669 256° West 458 527 26,000 -960 Level Chicago Center
01:42PM 42.6708 -86.1378 256° West 461 531 24,100 -2,040 Descending Chicago Center
01:43PM 42.6333 -86.3361 256° West 452 520 21,900 -1,860 Descending Chicago Center
01:44PM 42.6022 -86.4997 256° West 447 514 20,300 -1,800 Descending Chicago Center
01:45PM 42.5719 -86.6608 256° West 441 507 18,200 -2,040 Descending Chicago Center
01:46PM 42.5381 -86.8117 253° West 422 486 16,200 -1,980 Descending Chicago Center
01:47PM 42.4983 -86.9553 249° West 410 472 14,200 -2,040 Descending Chicago Center
01:48PM 42.4600 -87.0925 249° West 393 452 12,100 -1,860 Descending Chicago Center
01:49PM 42.4236 -87.2269 250° West 382 440 10,400 -1,020 Descending Chicago Center
01:50PM 42.3789 -87.3850 249° West 376 433 10,000 -240 Descending Chicago Center
01:51PM 42.3475 -87.5008 250° West 365 420 10,000  Level Chicago Center
01:52PM 42.2631 -87.6156 225° Southwest 366 421 10,000 -120 Level Chicago Center
01:53PM 42.1919 -87.6889 217° Southwest 327 376 9,800 -600 Descending Chicago Center
01:54PM 42.1286 -87.7569 219° Southwest 295 339 8,800 -960 Descending Chicago Center
01:55PM 42.0914 -87.8483 241° Southwest 300 345 7,800 -900 Descending Chicago Center
01:56PM 42.0911 -87.9556 270° West 289 333 7,000 -420 Descending Chicago Center
01:57PM 42.0908 -88.0636 270° West 257 296 7,000 -600 Level Chicago Center
01:58PM 42.0833 -88.1500 263° West 216 249 5,800 -1,080 Descending Chicago TRACON
01:59PM 42.0617 -88.1975 238° Southwest 219 252 4,800 -900 Descending Chicago Center
02:00PM 42.0092 -88.1939 177° South 196 226 4,000 -540 Descending Chicago Center
02:01PM 41.9842 -88.1328 119° Southeast 194 223 3,800 -720 Descending Chicago Center
02:02PM 41.9833 -88.0500 91° East 183 211 2,700 -1,020 Descending Chicago TRACON
02:03PM 41.9833 -88.0000 90° East 142 163 1,900 -780 Descending Chicago TRACON
02:04PM 41.9833 -87.9500 90° East 132 152 1,200 -720 Descending Chicago TRACON
02:06PM 41.9817 -87.9067 90° East  Level Estimated